Time;durP1;ratioP1;P1;durP2;ratioP2;P2;SDS_P1;SDS_P2;PMS_P1;PMS_P2;Temp;Humidity;BMP_temperature;BMP_pressure;BME280_temperature;BME280_humidity;BME280_pressure;Samples;Min_cycle;Max_cycle;Signal;HPM_P1;HPM_P2
2023/05/08 00:00:25;;;;;;;14.95;11.32;;;14.20;99.90;;;;;;4991581;28;20551;-69
2023/05/08 00:02:51;;;;;;;13.18;11.02;;;14.30;99.90;;;;;;4992040;28;20042;-70
2023/05/08 00:05:17;;;;;;;11.73;10.52;;;;;;;;;;4992963;28;20074;-71
2023/05/08 00:07:43;;;;;;;11.10;9.98;;;;;;;;;;4991933;28;20042;-70
2023/05/08 00:10:09;;;;;;;12.80;11.30;;;14.20;99.90;;;;;;4991456;28;20048;-70
2023/05/08 00:12:35;;;;;;;12.40;10.73;;;14.20;99.90;;;;;;4991601;28;20057;-70
2023/05/08 00:15:02;;;;;;;12.80;11.18;;;14.10;99.90;;;;;;4975297;28;20129;-69
2023/05/08 00:17:28;;;;;;;13.68;11.45;;;14.00;99.90;;;;;;4991766;28;20049;-70
2023/05/08 00:19:54;;;;;;;16.13;11.85;;;;;;;;;;4991407;28;20034;-69
2023/05/08 00:22:19;;;;;;;12.68;11.25;;;13.90;99.90;;;;;;4991062;28;20405;-70
2023/05/08 00:24:45;;;;;;;14.90;12.23;;;;;;;;;;4991160;28;20037;-69
2023/05/08 00:27:11;;;;;;;14.55;11.68;;;14.10;99.90;;;;;;4991395;28;20129;-70
2023/05/08 00:29:39;;;;;;;13.15;11.77;;;13.90;99.90;;;;;;4991268;28;20038;-69
2023/05/08 00:32:05;;;;;;;12.88;11.45;;;;;;;;;;4975552;28;20046;-69
2023/05/08 00:34:30;;;;;;;14.73;12.60;;;14.00;99.90;;;;;;4991222;28;20057;-69
2023/05/08 00:36:56;;;;;;;12.77;11.45;;;13.90;99.90;;;;;;4975016;28;20038;-70
2023/05/08 00:39:22;;;;;;;14.60;11.95;;;13.90;99.90;;;;;;4991149;28;20039;-69
2023/05/08 00:41:48;;;;;;;17.00;12.43;;;;;;;;;;4990403;28;20562;-69
2023/05/08 00:44:14;;;;;;;15.63;11.98;;;;;;;;;;4991064;28;20467;-70
2023/05/08 00:46:41;;;;;;;16.10;13.27;;;;;;;;;;4991018;28;20042;-69
2023/05/08 00:49:12;;;;;;;16.42;12.23;;;;;;;;;;4991056;28;20046;-70
2023/05/08 00:51:38;;;;;;;14.20;12.50;;;;;;;;;;4974613;28;20042;-69
2023/05/08 00:54:04;;;;;;;15.55;12.65;;;;;;;;;;4990878;28;20069;-70
2023/05/08 00:56:31;;;;;;;13.15;11.57;;;;;;;;;;4991118;28;20530;-69
2023/05/08 00:58:57;;;;;;;13.48;12.05;;;;;;;;;;4974680;28;20049;-70
2023/05/08 01:01:23;;;;;;;12.80;11.05;;;;;;;;;;4990709;28;20045;-69
2023/05/08 01:03:51;;;;;;;14.98;12.10;;;;;;;;;;4990970;28;20133;-70
2023/05/08 01:06:19;;;;;;;14.18;11.35;;;;;;;;;;4975070;28;20038;-69
2023/05/08 01:08:47;;;;;;;12.80;11.02;;;;;;;;;;4990784;28;20049;-70
2023/05/08 01:11:16;;;;;;;15.23;13.55;;;;;;;;;;4990598;28;20067;-69
2023/05/08 01:13:42;;;;;;;13.63;12.15;;;;;;;;;;4974789;28;20043;-70
2023/05/08 01:16:14;;;;;;;14.50;12.82;;;;;;;;;;4974609;28;20189;-70
2023/05/08 01:18:54;;;;;;;16.53;13.17;;;;;;;;;;4990700;28;20125;-70
2023/05/08 01:21:45;;;;;;;13.35;11.95;;;;;;;;;;4974490;28;20082;-69
2023/05/08 01:24:31;;;;;;;16.48;12.68;;;;;;;;;;4990835;28;20101;-70
2023/05/08 01:27:03;;;;;;;14.57;12.45;;;;;;;;;;4974741;28;20132;-69
2023/05/08 01:29:29;;;;;;;18.88;13.18;;;;;;;;;;4990846;28;20408;-70
2023/05/08 01:32:14;;;;;;;15.55;12.80;;;;;;;;;;4991494;28;20034;-69
2023/05/08 01:34:46;;;;;;;16.45;13.88;;;;;;;;;;4990873;28;20039;-69
2023/05/08 01:37:15;;;;;;;15.23;13.63;;;;;;;;;;4992048;28;20177;-70
2023/05/08 01:39:46;;;;;;;14.70;12.88;;;;;;;;;;4990360;28;20137;-69
2023/05/08 01:42:18;;;;;;;15.50;13.40;;;;;;;;;;4990539;28;20042;-70
2023/05/08 01:44:45;;;;;;;15.60;12.98;;;;;;;;;;4990544;28;20038;-69
2023/05/08 01:47:13;;;;;;;18.17;14.02;;;13.40;99.90;;;;;;4990498;28;20077;-70
2023/05/08 01:49:55;;;;;;;17.45;13.70;;;13.40;99.90;;;;;;4974120;28;20097;-69
2023/05/08 01:52:30;;;;;;;16.58;13.23;;;13.30;99.90;;;;;;4991120;28;20112;-69
2023/05/08 01:55:04;;;;;;;16.58;12.38;;;13.10;99.90;;;;;;4994444;28;20046;-69
2023/05/08 01:57:33;;;;;;;15.25;13.65;;;13.10;99.90;;;;;;4994025;28;20092;-70
2023/05/08 02:00:01;;;;;;;19.27;13.23;;;13.20;99.90;;;;;;4993933;28;20050;-69
2023/05/08 02:02:30;;;;;;;19.08;14.30;;;13.30;99.90;;;;;;4994264;28;20448;-70
2023/05/08 02:04:56;;;;;;;18.05;14.57;;;13.00;99.90;;;;;;4993913;28;20065;-69
2023/05/08 02:07:23;;;;;;;16.40;13.38;;;13.30;99.90;;;;;;4994074;28;20104;-70
2023/05/08 02:09:50;;;;;;;17.23;14.60;;;13.10;99.90;;;;;;4993563;28;20466;-70
2023/05/08 02:12:17;;;;;;;18.67;15.10;;;13.00;99.90;;;;;;4993822;28;20628;-69
2023/05/08 02:14:46;;;;;;;19.05;13.90;;;13.00;99.90;;;;;;4993807;28;20052;-69
2023/05/08 02:17:15;;;;;;;16.38;13.57;;;13.20;99.90;;;;;;4993861;28;20042;-69
2023/05/08 02:19:42;;;;;;;16.27;13.50;;;12.90;99.90;;;;;;4995149;28;20174;-69
2023/05/08 02:22:09;;;;;;;17.75;14.27;;;13.10;99.90;;;;;;4979900;28;20081;-70
2023/05/08 02:24:35;;;;;;;16.45;13.57;;;13.00;99.90;;;;;;4996937;28;20172;-69
2023/05/08 02:27:02;;;;;;;18.83;15.27;;;13.10;99.90;;;;;;4994301;28;20039;-69
2023/05/08 02:29:29;;;;;;;16.73;13.30;;;12.90;99.90;;;;;;4993475;28;20535;-69
2023/05/08 02:31:55;;;;;;;16.58;13.88;;;13.00;99.90;;;;;;4993365;28;20053;-70
2023/05/08 02:34:23;;;;;;;16.23;13.13;;;13.00;99.90;;;;;;4993718;28;20455;-69
2023/05/08 02:36:50;;;;;;;18.48;13.95;;;12.90;99.90;;;;;;4993615;28;20412;-70
2023/05/08 02:39:18;;;;;;;17.95;14.68;;;12.90;99.90;;;;;;4993251;28;20566;-70
2023/05/08 02:41:44;;;;;;;16.70;14.68;;;13.00;99.90;;;;;;4993336;28;20496;-70
2023/05/08 02:44:10;;;;;;;15.75;14.05;;;;;;;;;;4993414;28;20536;-69
2023/05/08 02:46:36;;;;;;;14.98;13.27;;;;;;;;;;4993120;28;20038;-69
2023/05/08 02:49:14;;;;;;;18.90;15.77;;;12.90;99.90;;;;;;4993155;28;20555;-69
2023/05/08 02:51:52;;;;;;;14.32;12.82;;;13.00;99.90;;;;;;4992913;28;20039;-69
2023/05/08 02:54:29;;;;;;;16.33;13.63;;;12.90;99.90;;;;;;4994297;28;20495;-70
2023/05/08 02:57:04;;;;;;;16.10;14.40;;;12.50;99.90;;;;;;4976896;28;20053;-70
2023/05/08 02:59:45;;;;;;;16.80;13.57;;;12.50;99.90;;;;;;4993025;28;20048;-70
2023/05/08 03:02:39;;;;;;;18.55;13.30;;;12.60;99.90;;;;;;4992978;28;20058;-69
2023/05/08 03:05:24;;;;;;;16.83;14.35;;;12.80;99.90;;;;;;4992712;28;20038;-69
2023/05/08 03:07:54;;;;;;;17.55;14.38;;;12.80;99.90;;;;;;4992928;28;20570;-69
2023/05/08 03:10:24;;;;;;;15.20;13.60;;;12.60;99.90;;;;;;4992372;28;20554;-70
2023/05/08 03:12:53;;;;;;;18.48;14.40;;;12.70;99.90;;;;;;4976831;28;20046;-69
2023/05/08 03:15:43;;;;;;;18.48;14.35;;;12.50;99.90;;;;;;4976697;28;20093;-70
2023/05/08 03:18:20;;;;;;;17.83;14.18;;;12.60;99.90;;;;;;4985168;28;20060;-70
2023/05/08 03:20:51;;;;;;;19.42;14.60;;;12.70;99.90;;;;;;4993976;28;20108;-70
2023/05/08 03:23:20;;;;;;;18.90;14.45;;;12.70;99.90;;;;;;4994054;28;20082;-69
2023/05/08 03:25:46;;;;;;;17.30;14.77;;;12.60;99.90;;;;;;4976238;28;20090;-70
2023/05/08 03:28:12;;;;;;;17.80;14.70;;;12.50;99.90;;;;;;4992620;28;20038;-70
2023/05/08 03:30:40;;;;;;;22.63;16.27;;;12.60;99.90;;;;;;4992277;28;20097;-70
2023/05/08 03:33:06;;;;;;;15.95;14.25;;;12.60;99.90;;;;;;4976232;28;20042;-70
2023/05/08 03:35:38;;;;;;;18.13;14.95;;;12.70;99.90;;;;;;4992383;28;20042;-69
2023/05/08 03:38:04;;;;;;;16.95;14.52;;;12.80;99.90;;;;;;4976248;28;20416;-70
2023/05/08 03:40:30;;;;;;;16.50;14.05;;;;;;;;;;4992184;28;20046;-69
2023/05/08 03:42:57;;;;;;;17.25;14.77;;;12.80;99.90;;;;;;4992409;28;20416;-70
2023/05/08 03:45:24;;;;;;;19.85;14.65;;;12.80;99.90;;;;;;4992055;28;20042;-70
2023/05/08 03:47:52;;;;;;;16.23;13.55;;;12.60;99.90;;;;;;4992183;28;20121;-70
2023/05/08 03:50:18;;;;;;;19.58;14.50;;;12.60;99.90;;;;;;4975879;28;20412;-69
2023/05/08 03:52:44;;;;;;;16.35;14.02;;;12.60;99.90;;;;;;4993214;28;20034;-69
2023/05/08 03:55:10;;;;;;;17.50;14.95;;;12.70;99.90;;;;;;4993114;28;20038;-69
2023/05/08 03:57:47;;;;;;;17.70;14.70;;;12.60;99.90;;;;;;4991993;28;20038;-70
2023/05/08 04:00:44;;;;;;;20.05;15.00;;;12.50;99.90;;;;;;4991588;28;20038;-69
2023/05/08 04:03:23;;;;;;;19.38;13.88;;;12.30;99.90;;;;;;4991776;28;20042;-69
2023/05/08 04:06:16;;;;;;;16.85;14.32;;;12.50;99.90;;;;;;4992156;28;20038;-69
2023/05/08 04:08:49;;;;;;;18.53;15.00;;;12.50;99.90;;;;;;4992074;28;20104;-69
2023/05/08 04:11:20;;;;;;;;;;;12.30;99.90;;;;;;4992173;28;20356;-69
2023/05/08 04:13:49;;;;;;;19.58;14.20;;;12.40;99.90;;;;;;4991658;28;19917;-70
2023/05/08 04:16:25;;;;;;;17.98;13.88;;;12.50;99.90;;;;;;4991139;28;20516;-69
2023/05/08 04:19:00;;;;;;;17.27;13.70;;;12.50;99.90;;;;;;4975271;28;20049;-70
2023/05/08 04:21:27;;;;;;;21.00;14.63;;;12.30;99.90;;;;;;4991329;28;20089;-70
2023/05/08 04:23:55;;;;;;;16.65;14.25;;;12.40;99.90;;;;;;4990720;28;20034;-70
2023/05/08 04:26:21;;;;;;;18.10;14.38;;;;;;;;;;4991218;28;20888;-69
2023/05/08 04:28:48;;;;;;;16.90;14.18;;;;;;;;;;4991315;28;20043;-69
2023/05/08 04:31:15;;;;;;;16.98;14.07;;;12.40;99.90;;;;;;4990975;28;20046;-70
2023/05/08 04:33:45;;;;;;;16.45;14.50;;;12.40;99.90;;;;;;4975589;28;20050;-69
2023/05/08 04:36:12;;;;;;;17.83;14.18;;;12.30;99.90;;;;;;4992892;28;20046;-70
2023/05/08 04:38:39;;;;;;;20.55;14.77;;;12.50;99.90;;;;;;4991225;28;20545;-69
2023/05/08 04:41:04;;;;;;;20.17;14.98;;;12.40;99.90;;;;;;4991398;28;20121;-69
2023/05/08 04:43:30;;;;;;;17.88;14.73;;;;;;;;;;4991335;28;20534;-70
2023/05/08 04:45:56;;;;;;;16.50;14.10;;;;;;;;;;4991120;28;20082;-70
2023/05/08 04:48:23;;;;;;;15.35;13.30;;;;;;;;;;4991359;28;20086;-69
2023/05/08 04:50:49;;;;;;;17.38;13.77;;;12.50;99.90;;;;;;4975851;28;20408;-70
2023/05/08 04:53:15;;;;;;;18.02;14.70;;;12.30;99.90;;;;;;4993033;28;20038;-70
2023/05/08 04:55:41;;;;;;;19.80;14.43;;;;;;;;;;4991265;28;20061;-69
2023/05/08 04:58:06;;;;;;;15.95;13.55;;;12.40;99.90;;;;;;4991022;28;20045;-70
2023/05/08 05:00:33;;;;;;;19.33;12.43;;;12.50;99.90;;;;;;4992168;28;20178;-69
2023/05/08 05:02:59;;;;;;;16.33;13.93;;;;;;;;;;4992497;28;20410;-70
2023/05/08 05:05:25;;;;;;;17.48;13.35;;;;;;;;;;4991550;28;20053;-69
2023/05/08 05:07:51;;;;;;;17.42;13.18;;;;;;;;;;4990938;28;20053;-70
2023/05/08 05:10:16;;;;;;;16.58;12.80;;;12.50;99.90;;;;;;4990649;28;20080;-69
2023/05/08 05:12:42;;;;;;;16.95;13.18;;;12.70;99.90;;;;;;4974687;28;20064;-69
2023/05/08 05:15:08;;;;;;;17.48;13.80;;;12.70;99.90;;;;;;4990759;28;20074;-69
2023/05/08 05:17:34;;;;;;;15.48;12.65;;;12.80;99.90;;;;;;4990863;28;20125;-69
2023/05/08 05:20:00;;;;;;;17.42;13.80;;;;;;;;;;4990525;28;20101;-69
2023/05/08 05:22:27;;;;;;;16.27;13.48;;;;;;;;;;4990780;28;20053;-69
2023/05/08 05:24:53;;;;;;;15.75;13.23;;;12.80;99.90;;;;;;4991630;28;20396;-69
2023/05/08 05:27:19;;;;;;;17.83;14.05;;;;;;;;;;4994344;28;20035;-70
2023/05/08 05:29:45;;;;;;;17.98;13.25;;;12.80;99.90;;;;;;4978294;28;20134;-69
2023/05/08 05:32:10;;;;;;;16.30;13.20;;;12.90;99.90;;;;;;4994197;28;20670;-69
2023/05/08 05:34:37;;;;;;;15.85;13.50;;;13.00;99.90;;;;;;4994599;28;20108;-69
2023/05/08 05:37:03;;;;;;;16.48;13.48;;;;;;;;;;4994403;28;20088;-70
2023/05/08 05:39:29;;;;;;;16.13;13.15;;;12.80;99.90;;;;;;4994363;28;20508;-69
2023/05/08 05:41:55;;;;;;;16.95;14.07;;;;;;;;;;4994195;28;20173;-70
2023/05/08 05:44:21;;;;;;;15.18;12.80;;;;;;;;;;4994629;28;20042;-70
2023/05/08 05:46:46;;;;;;;19.35;13.45;;;13.10;99.90;;;;;;4993487;28;20034;-70
2023/05/08 05:49:12;;;;;;;15.20;12.15;;;;;;;;;;4994100;28;20046;-69
2023/05/08 05:51:38;;;;;;;15.88;13.23;;;13.30;99.90;;;;;;4993371;28;20035;-70
2023/05/08 05:54:04;;;;;;;25.33;13.68;;;13.30;99.90;;;;;;4993787;28;20045;-70
2023/05/08 05:56:29;;;;;;;17.33;12.35;;;;;;;;;;4993756;28;20062;-70
2023/05/08 05:58:56;;;;;;;15.05;12.65;;;;;;;;;;4992916;28;20101;-71
2023/05/08 06:01:23;;;;;;;14.52;12.27;;;13.40;99.90;;;;;;5009605;28;20030;-70
2023/05/08 06:03:49;;;;;;;14.15;12.30;;;13.30;99.90;;;;;;4993451;28;20030;-69
2023/05/08 06:06:14;;;;;;;14.90;12.85;;;13.50;99.90;;;;;;4994652;28;20057;-70
2023/05/08 06:08:41;;;;;;;14.70;12.65;;;;;;;;;;4993591;28;20078;-70
2023/05/08 06:11:06;;;;;;;14.88;12.40;;;13.60;99.90;;;;;;4976543;28;20096;-69
2023/05/08 06:13:32;;;;;;;16.52;13.30;;;13.60;99.90;;;;;;4992709;28;20503;-70
2023/05/08 06:15:57;;;;;;;15.20;12.98;;;13.60;99.90;;;;;;4993796;28;20038;-69
2023/05/08 06:18:23;;;;;;;17.38;12.50;;;13.70;99.90;;;;;;4993652;28;20500;-70
2023/05/08 06:20:49;;;;;;;15.88;13.15;;;;;;;;;;4993306;28;20042;-69
2023/05/08 06:23:15;;;;;;;15.05;13.48;;;;;;;;;;4977724;28;20540;-70
2023/05/08 06:25:41;;;;;;;16.98;12.55;;;;;;;;;;4993657;28;20038;-69
2023/05/08 06:28:07;;;;;;;14.40;12.82;;;13.30;99.90;;;;;;4977588;28;20042;-69
2023/05/08 06:30:33;;;;;;;16.98;13.30;;;13.60;99.90;;;;;;4993199;28;20045;-69
2023/05/08 06:32:59;;;;;;;17.70;13.05;;;13.40;99.90;;;;;;4994392;28;20129;-69
2023/05/08 06:35:25;;;;;;;16.60;14.35;;;;;;;;;;4993402;28;20677;-69
2023/05/08 06:37:50;;;;;;;19.42;15.30;;;13.50;99.90;;;;;;4976456;28;20038;-70
2023/05/08 06:40:16;;;;;;;15.40;13.10;;;13.70;99.90;;;;;;4992219;28;20416;-69
2023/05/08 06:42:42;;;;;;;14.02;12.52;;;;;;;;;;4976100;28;20496;-69
2023/05/08 06:45:08;;;;;;;15.20;13.07;;;13.90;99.90;;;;;;4993453;28;20084;-69
2023/05/08 06:47:34;;;;;;;13.90;12.15;;;;;;;;;;4993617;28;20086;-68
2023/05/08 06:50:00;;;;;;;16.90;13.70;;;14.10;99.90;;;;;;4993094;28;20074;-69
2023/05/08 06:52:26;;;;;;;17.48;13.60;;;;;;;;;;4993248;28;20050;-68
2023/05/08 06:54:51;;;;;;;13.73;12.20;;;14.30;99.90;;;;;;4988754;28;20057;-69
2023/05/08 06:57:17;;;;;;;14.23;12.75;;;;;;;;;;4980053;28;20099;-68
2023/05/08 06:59:43;;;;;;;15.25;13.07;;;14.30;99.90;;;;;;4974701;28;20053;-69
2023/05/08 07:02:09;;;;;;;22.33;13.48;;;;;;;;;;4962460;28;20188;-68
2023/05/08 07:04:35;;;;;;;15.45;12.95;;;14.20;99.90;;;;;;4982486;28;20591;-68
2023/05/08 07:07:01;;;;;;;15.88;13.02;;;;;;;;;;4976020;28;20026;-69
2023/05/08 07:09:27;;;;;;;15.48;13.43;;;14.40;99.90;;;;;;4960559;28;20480;-69
2023/05/08 07:11:53;;;;;;;14.10;12.23;;;;;;;;;;4973847;28;20049;-69
2023/05/08 07:14:19;;;;;;;16.55;13.15;;;;;;;;;;4975316;28;20047;-69
2023/05/08 07:16:45;;;;;;;15.30;12.98;;;;;;;;;;4979161;28;20105;-70
2023/05/08 07:19:10;;;;;;;15.35;13.43;;;14.80;99.90;;;;;;4974863;28;20488;-69
2023/05/08 07:21:37;;;;;;;16.35;12.65;;;14.70;99.90;;;;;;4976915;28;20050;-70
2023/05/08 07:24:03;;;;;;;15.63;12.85;;;;;;;;;;4975159;28;20034;-69
2023/05/08 07:26:29;;;;;;;16.52;13.13;;;14.80;99.90;;;;;;4976146;28;20042;-69
2023/05/08 07:28:55;;;;;;;15.45;12.82;;;;;;;;;;4973617;28;20041;-68
2023/05/08 07:31:21;;;;;;;15.23;13.32;;;14.90;99.90;;;;;;4967572;28;20057;-70
2023/05/08 07:33:47;;;;;;;15.52;12.10;;;;;;;;;;4977194;28;20041;-69
2023/05/08 07:36:13;;;;;;;15.60;13.00;;;;;;;;;;4994274;28;20133;-69
2023/05/08 07:38:39;;;;;;;16.85;12.82;;;;;;;;;;4992231;28;20504;-69
2023/05/08 07:41:05;;;;;;;13.80;12.20;;;;;;;;;;4991946;28;20146;-69
2023/05/08 07:43:31;;;;;;;16.38;13.02;;;15.40;99.90;;;;;;4992243;28;20046;-70
2023/05/08 07:45:57;;;;;;;16.02;12.63;;;15.40;99.90;;;;;;4976180;28;20415;-70
2023/05/08 07:48:23;;;;;;;14.88;13.18;;;;;;;;;;4992505;28;20038;-70
2023/05/08 07:50:50;;;;;;;15.68;12.85;;;;;;;;;;4976185;28;20043;-70
2023/05/08 07:53:15;;;;;;;15.00;13.07;;;16.20;99.90;;;;;;4993607;28;20530;-70
2023/05/08 07:55:41;;;;;;;14.32;12.27;;;;;;;;;;4992518;28;20125;-70
2023/05/08 07:58:07;;;;;;;15.25;13.45;;;;;;;;;;4991963;28;20046;-69
2023/05/08 08:00:33;;;;;;;14.05;12.55;;;16.20;99.90;;;;;;4991992;28;20442;-70
2023/05/08 08:02:59;;;;;;;14.98;12.23;;;16.10;99.90;;;;;;4991817;28;20038;-69
2023/05/08 08:05:25;;;;;;;13.98;12.50;;;;;;;;;;4975731;28;20061;-70
2023/05/08 08:07:50;;;;;;;14.30;12.65;;;16.30;99.90;;;;;;4991703;28;20092;-68
2023/05/08 08:10:16;;;;;;;15.05;12.77;;;;;;;;;;4988531;28;20125;-70
2023/05/08 08:12:42;;;;;;;14.98;13.40;;;;;;;;;;4987030;28;20050;-69
2023/05/08 08:15:08;;;;;;;15.50;13.07;;;16.40;99.90;;;;;;4987732;28;20034;-70
2023/05/08 08:17:34;;;;;;;15.48;13.13;;;16.20;99.90;;;;;;4971870;28;20412;-70
2023/05/08 08:20:00;;;;;;;13.48;11.80;;;16.30;99.90;;;;;;4971732;28;20050;-70
2023/05/08 08:22:25;;;;;;;15.00;12.38;;;16.40;99.90;;;;;;4973480;28;20050;-70
2023/05/08 08:24:53;;;;;;;13.77;12.20;;;16.40;99.90;;;;;;4972101;28;20042;-70
2023/05/08 08:27:19;;;;;;;13.93;12.05;;;16.40;99.90;;;;;;4975559;28;20039;-70
2023/05/08 08:29:44;;;;;;;14.80;12.95;;;16.50;99.90;;;;;;4991167;28;20112;-69
2023/05/08 08:32:10;;;;;;;15.98;14.13;;;16.50;99.90;;;;;;4991025;28;20052;-69
2023/05/08 08:34:36;;;;;;;16.13;13.88;;;;;;;;;;4991162;28;20046;-69
2023/05/08 08:37:04;;;;;;;15.98;13.52;;;16.60;99.90;;;;;;4991141;28;20053;-70
2023/05/08 08:39:33;;;;;;;15.55;12.88;;;16.80;99.90;;;;;;4991056;28;20129;-69
2023/05/08 08:41:58;;;;;;;14.95;13.05;;;16.90;99.90;;;;;;4991276;28;20046;-70
2023/05/08 08:44:24;;;;;;;14.25;12.73;;;16.90;99.90;;;;;;4991086;28;20492;-69
2023/05/08 08:46:51;;;;;;;14.90;13.30;;;17.10;99.90;;;;;;4992213;28;20467;-70
2023/05/08 08:49:22;;;;;;;15.20;13.25;;;17.10;99.90;;;;;;4991287;28;20416;-69
2023/05/08 08:51:54;;;;;;;16.90;13.75;;;17.40;99.90;;;;;;4990890;28;20047;-69
2023/05/08 08:54:23;;;;;;;14.98;13.07;;;17.40;99.90;;;;;;4991008;28;20077;-69
2023/05/08 08:56:50;;;;;;;14.43;12.93;;;17.40;99.90;;;;;;4990173;28;20121;-69
2023/05/08 08:59:17;;;;;;;15.07;13.48;;;17.70;99.90;;;;;;4990220;28;20046;-70
2023/05/08 09:01:52;;;;;;;15.43;13.13;;;18.00;99.90;;;;;;4973911;28;20070;-70
2023/05/08 09:04:18;;;;;;;14.77;12.48;;;17.80;99.90;;;;;;4983437;28;20519;-69
2023/05/08 09:06:44;;;;;;;16.00;13.05;;;17.60;99.90;;;;;;4971405;28;20042;-69
2023/05/08 09:09:11;;;;;;;14.68;13.13;;;18.00;99.90;;;;;;4971420;28;20047;-69
2023/05/08 09:11:39;;;;;;;15.90;13.88;;;18.00;99.90;;;;;;4971187;28;20047;-69
2023/05/08 09:14:04;;;;;;;15.23;13.48;;;18.40;99.90;;;;;;4971459;28;20046;-70
2023/05/08 09:16:30;;;;;;;14.80;13.20;;;18.40;99.90;;;;;;4971514;28;20501;-69
2023/05/08 09:18:56;;;;;;;16.45;14.10;;;18.50;99.90;;;;;;4971189;28;20508;-69
2023/05/08 09:21:22;;;;;;;17.33;14.05;;;18.70;99.90;;;;;;4972629;28;20052;-69
2023/05/08 09:23:55;;;;;;;15.80;13.88;;;18.60;99.90;;;;;;4971286;28;20047;-69
2023/05/08 09:26:33;;;;;;;15.20;13.05;;;19.00;99.90;;;;;;4987511;28;20043;-69
2023/05/08 09:29:18;;;;;;;15.38;12.82;;;18.80;99.90;;;;;;4971289;28;20046;-68
2023/05/08 09:31:48;;;;;;;12.90;11.50;;;19.00;99.90;;;;;;4972576;28;20079;-68
2023/05/08 09:34:26;;;;;;;14.70;13.20;;;19.00;99.90;;;;;;4971384;28;20338;-68
2023/05/08 09:36:53;;;;;;;15.25;13.15;;;19.00;99.90;;;;;;4971234;28;20049;-69
2023/05/08 09:39:23;;;;;;;15.60;13.43;;;19.20;99.90;;;;;;4971264;28;20043;-69
2023/05/08 09:42:00;;;;;;;16.30;14.55;;;20.20;99.90;;;;;;4971018;28;20049;-68
2023/05/08 09:44:26;;;;;;;16.08;13.68;;;19.50;99.90;;;;;;4971254;28;20043;-69
2023/05/08 09:46:52;;;;;;;13.85;12.05;;;19.70;99.90;;;;;;4971114;28;20549;-68
2023/05/08 09:49:18;;;;;;;18.30;14.82;;;19.60;99.90;;;;;;4955060;28;20046;-69
2023/05/08 09:51:53;;;;;;;17.00;14.45;;;19.50;99.90;;;;;;4971044;28;20042;-69
2023/05/08 09:54:19;;;;;;;18.38;15.23;;;19.40;99.90;;;;;;4971413;28;20121;-69
2023/05/08 09:56:45;;;;;;;17.02;15.27;;;19.60;99.90;;;;;;4985741;28;20165;-69
2023/05/08 09:59:30;;;;;;;16.80;15.00;;;20.40;99.90;;;;;;4990078;28;20069;-69
2023/05/08 10:01:56;;;;;;;17.27;15.15;;;19.90;99.90;;;;;;4989796;28;20050;-68
2023/05/08 10:04:35;;;;;;;17.70;15.77;;;20.00;99.90;;;;;;4972258;28;20069;-68
2023/05/08 10:07:01;;;;;;;17.15;14.80;;;20.40;99.90;;;;;;4989867;28;20050;-69
2023/05/08 10:09:27;;;;;;;17.63;15.73;;;20.10;99.90;;;;;;4990322;28;20046;-69
2023/05/08 10:11:54;;;;;;;18.52;14.45;;;20.10;99.90;;;;;;4990196;28;20050;-69
2023/05/08 10:14:21;;;;;;;17.33;15.48;;;20.20;99.90;;;;;;4992372;28;20053;-69
2023/05/08 10:16:48;;;;;;;18.60;15.23;;;20.30;99.90;;;;;;4994020;28;20054;-69
2023/05/08 10:19:16;;;;;;;18.33;15.15;;;20.50;99.90;;;;;;4993428;28;20050;-69
2023/05/08 10:21:45;;;;;;;16.42;14.75;;;20.40;99.90;;;;;;4993557;28;20049;-69
2023/05/08 10:24:32;;;;;;;17.40;15.25;;;20.40;99.90;;;;;;4993677;28;20447;-68
2023/05/08 10:27:18;;;;;;;19.08;15.75;;;20.40;99.90;;;;;;4993480;28;20048;-68
2023/05/08 10:29:55;;;;;;;21.70;16.08;;;20.30;99.90;;;;;;4993351;28;20042;-68
2023/05/08 10:32:23;;;;;;;17.98;14.63;;;20.30;99.90;;;;;;4994676;28;20046;-69
2023/05/08 10:34:52;;;;;;;17.05;15.10;;;20.50;99.90;;;;;;4992904;28;20038;-69
2023/05/08 10:37:18;;;;;;;16.25;13.90;;;20.60;99.90;;;;;;4993406;28;20046;-68
2023/05/08 10:39:45;;;;;;;18.35;15.55;;;20.80;99.90;;;;;;5009426;28;20042;-68
2023/05/08 10:42:14;;;;;;;20.65;16.40;;;20.70;99.90;;;;;;4993417;28;20050;-69
2023/05/08 10:44:40;;;;;;;16.70;14.27;;;21.00;99.90;;;;;;4993249;28;20046;-69
2023/05/08 10:47:20;;;;;;;17.40;13.57;;;21.00;99.90;;;;;;4977009;28;20041;-69
2023/05/08 10:49:55;;;;;;;21.05;16.30;;;21.10;99.90;;;;;;4992925;28;20044;-68
2023/05/08 10:52:34;;;;;;;16.50;14.00;;;21.20;99.90;;;;;;4977319;28;20395;-69
2023/05/08 10:55:27;;;;;;;16.27;14.57;;;21.30;99.90;;;;;;5009466;28;20077;-69
2023/05/08 10:58:08;;;;;;;17.63;14.07;;;21.40;99.90;;;;;;5009107;28;20089;-68
2023/05/08 11:00:51;;;;;;;16.23;13.55;;;21.30;99.90;;;;;;4992739;28;20038;-69
2023/05/08 11:03:18;;;;;;;17.55;13.90;;;21.60;99.90;;;;;;4992944;28;20168;-70
2023/05/08 11:05:49;;;;;;;15.65;13.95;;;21.50;99.90;;;;;;4990420;28;20078;-69
2023/05/08 11:08:28;;;;;;;16.15;14.32;;;22.40;99.90;;;;;;4973358;28;20038;-69
2023/05/08 11:11:05;;;;;;;16.60;14.25;;;21.70;99.90;;;;;;4957340;28;20412;-69
2023/05/08 11:14:02;;;;;;;17.45;14.55;;;21.90;99.90;;;;;;4973616;28;20043;-69
2023/05/08 11:16:53;;;;;;;16.20;14.38;;;22.00;99.90;;;;;;4956417;28;20058;-69
2023/05/08 11:19:20;;;;;;;15.63;14.02;;;21.90;99.90;;;;;;4957199;28;20054;-69
2023/05/08 11:22:14;;;;;;;16.95;14.93;;;21.90;99.90;;;;;;4974168;28;20038;-68
2023/05/08 11:24:40;;;;;;;;;;;22.20;99.90;;;;;;4973336;28;20047;-68
2023/05/08 11:27:06;;;;;;;15.95;14.27;;;22.50;99.90;;;;;;4972994;28;19918;-68
2023/05/08 11:29:32;;;;;;;15.98;13.75;;;22.50;99.90;;;;;;4989574;28;20117;-68
2023/05/08 11:31:58;;;;;;;17.70;14.20;;;22.40;99.90;;;;;;4988880;28;20467;-69
2023/05/08 11:34:42;;;;;;;15.52;13.90;;;22.20;99.90;;;;;;4973221;28;20038;-68
2023/05/08 11:37:15;;;;;;;18.13;13.63;;;22.60;99.90;;;;;;4973114;28;20046;-69
2023/05/08 11:39:41;;;;;;;15.52;13.77;;;22.40;99.90;;;;;;4956623;28;20101;-68
2023/05/08 11:42:27;;;;;;;16.90;14.13;;;22.20;99.90;;;;;;4973130;28;20038;-68
2023/05/08 11:45:05;;;;;;;15.88;13.65;;;22.00;99.90;;;;;;4990554;28;20038;-68
2023/05/08 11:47:43;;;;;;;17.23;14.68;;;22.00;99.90;;;;;;4992219;28;20566;-68
2023/05/08 11:50:10;;;;;;;18.05;15.88;;;21.90;99.90;;;;;;4991945;28;20089;-68
2023/05/08 11:52:37;;;;;;;19.58;15.23;;;22.00;99.90;;;;;;5008336;28;20138;-69
2023/05/08 11:55:08;;;;;;;19.38;15.90;;;22.10;99.90;;;;;;4991954;28;20088;-68
2023/05/08 11:57:34;;;;;;;18.23;15.48;;;22.00;99.90;;;;;;5008486;28;20411;-68
2023/05/08 12:00:10;;;;;;;17.10;15.30;;;22.00;99.90;;;;;;4991596;28;20042;-68
2023/05/08 12:02:40;;;;;;;19.48;16.30;;;21.90;99.90;;;;;;4991734;28;20085;-68
2023/05/08 12:05:09;;;;;;;17.48;14.35;;;21.90;99.90;;;;;;4977957;28;20126;-68
2023/05/08 12:07:43;;;;;;;20.05;15.85;;;22.30;99.90;;;;;;4988754;28;20407;-68
2023/05/08 12:10:09;;;;;;;17.08;14.45;;;22.10;99.90;;;;;;4971902;28;20058;-68
2023/05/08 12:12:39;;;;;;;17.88;14.75;;;22.20;99.90;;;;;;4988681;28;20042;-69
2023/05/08 12:15:06;;;;;;;17.00;15.00;;;22.30;99.90;;;;;;4972655;28;20043;-68
2023/05/08 12:17:32;;;;;;;17.50;14.73;;;22.20;99.90;;;;;;4972192;28;20038;-68
2023/05/08 12:20:12;;;;;;;18.98;15.30;;;22.60;99.90;;;;;;4972219;28;20045;-68
2023/05/08 12:22:40;;;;;;;16.75;15.02;;;22.50;99.90;;;;;;4972924;28;20113;-68
2023/05/08 12:25:07;;;;;;;16.65;14.93;;;23.00;99.90;;;;;;4956108;28;20179;-68
2023/05/08 12:27:36;;;;;;;16.52;14.70;;;22.60;99.90;;;;;;4955890;28;20492;-68
2023/05/08 12:30:11;;;;;;;19.42;16.98;;;22.80;99.90;;;;;;4955672;28;20051;-68
2023/05/08 12:32:38;;;;;;;20.90;16.45;;;22.80;99.90;;;;;;4956711;28;20130;-68
2023/05/08 12:35:06;;;;;;;17.90;16.00;;;22.50;99.90;;;;;;4973067;28;20053;-68
2023/05/08 12:37:32;;;;;;;21.73;16.25;;;22.60;99.90;;;;;;4971559;28;20074;-68
2023/05/08 12:39:57;;;;;;;17.65;15.65;;;22.50;99.90;;;;;;4971311;28;20074;-68
2023/05/08 12:42:50;;;;;;;22.90;15.77;;;23.00;99.90;;;;;;4971648;28;20404;-69
2023/05/08 12:45:27;;;;;;;18.20;16.00;;;22.90;99.90;;;;;;4971683;28;20042;-68
2023/05/08 12:47:58;;;;;;;20.30;17.27;;;23.00;99.90;;;;;;4973014;28;20512;-69
2023/05/08 12:50:26;;;;;;;19.08;17.05;;;23.60;99.90;;;;;;4974504;28;20057;-69
2023/05/08 12:52:52;;;;;;;18.88;15.80;;;23.30;99.90;;;;;;4991025;28;20046;-69
2023/05/08 12:55:22;;;;;;;20.48;16.65;;;23.30;99.90;;;;;;5006428;28;20050;-68
2023/05/08 12:57:57;;;;;;;17.95;15.82;;;23.00;99.90;;;;;;4971550;28;20054;-69
2023/05/08 13:00:23;;;;;;;21.58;17.02;;;23.10;99.90;;;;;;4971273;28;20060;-69
2023/05/08 13:02:53;;;;;;;20.98;18.67;;;23.20;99.90;;;;;;4971646;28;20035;-69